sensor_id;sensor_type;location;lat;lon;timestamp;pressure;altitude;pressure_sealevel;temperature;humidity
6349;BME280;3207;42.648;23.406;2023-02-13T00:01:51;102204.56;;;9.17;nan
6349;BME280;3207;42.648;23.406;2023-02-13T00:04:18;102196.84;;;9.14;nan
6349;BME280;3207;42.648;23.406;2023-02-13T00:06:45;102196.78;;;9.15;nan
6349;BME280;3207;42.648;23.406;2023-02-13T00:09:13;102191.53;;;9.17;nan
6349;BME280;3207;42.648;23.406;2023-02-13T00:11:41;102193.22;;;9.18;nan
6349;BME280;3207;42.648;23.406;2023-02-13T00:14:08;102194.09;;;9.18;nan
6349;BME280;3207;42.648;23.406;2023-02-13T00:16:35;102191.44;;;9.20;nan
6349;BME280;3207;42.648;23.406;2023-02-13T00:19:02;102190.47;;;9.23;nan
6349;BME280;3207;42.648;23.406;2023-02-13T00:21:29;102192.22;;;9.22;nan
6349;BME280;3207;42.648;23.406;2023-02-13T00:23:55;102198.19;;;9.26;nan
6349;BME280;3207;42.648;23.406;2023-02-13T00:26:23;102196.44;;;9.26;nan
6349;BME280;3207;42.648;23.406;2023-02-13T00:28:51;102203.38;;;9.27;nan
6349;BME280;3207;42.648;23.406;2023-02-13T00:31:20;102203.28;;;9.30;nan
6349;BME280;3207;42.648;23.406;2023-02-13T00:33:47;102191.88;;;9.33;nan
6349;BME280;3207;42.648;23.406;2023-02-13T00:36:15;102174.06;;;9.19;nan
6349;BME280;3207;42.648;23.406;2023-02-13T00:38:43;102185.91;;;9.29;nan
6349;BME280;3207;42.648;23.406;2023-02-13T00:41:10;102196.34;;;9.29;nan
6349;BME280;3207;42.648;23.406;2023-02-13T00:43:37;102197.50;;;9.21;nan
6349;BME280;3207;42.648;23.406;2023-02-13T00:46:06;102196.53;;;9.23;nan
6349;BME280;3207;42.648;23.406;2023-02-13T00:48:33;102194.03;;;9.20;nan
6349;BME280;3207;42.648;23.406;2023-02-13T00:51:01;102196.69;;;9.18;nan
6349;BME280;3207;42.648;23.406;2023-02-13T00:53:28;102194.13;;;9.17;nan
6349;BME280;3207;42.648;23.406;2023-02-13T00:55:55;102197.69;;;9.14;nan
6349;BME280;3207;42.648;23.406;2023-02-13T00:58:22;102196.19;;;9.07;nan
6349;BME280;3207;42.648;23.406;2023-02-13T01:00:50;102191.72;;;8.83;nan
6349;BME280;3207;42.648;23.406;2023-02-13T01:03:19;102192.00;;;8.74;nan
6349;BME280;3207;42.648;23.406;2023-02-13T01:05:46;102198.25;;;8.68;nan
6349;BME280;3207;42.648;23.406;2023-02-13T01:08:14;102198.34;;;8.65;nan
6349;BME280;3207;42.648;23.406;2023-02-13T01:10:42;102189.97;;;8.54;nan
6349;BME280;3207;42.648;23.406;2023-02-13T01:13:13;102171.44;;;8.34;nan
6349;BME280;3207;42.648;23.406;2023-02-13T01:15:40;102183.25;;;8.47;nan
6349;BME280;3207;42.648;23.406;2023-02-13T01:18:08;102172.81;;;8.47;nan
6349;BME280;3207;42.648;23.406;2023-02-13T01:20:36;102177.84;;;8.53;nan
6349;BME280;3207;42.648;23.406;2023-02-13T01:23:03;102175.22;;;8.53;nan
6349;BME280;3207;42.648;23.406;2023-02-13T01:25:30;102176.94;;;8.54;nan
6349;BME280;3207;42.648;23.406;2023-02-13T01:27:57;102170.91;;;8.52;nan
6349;BME280;3207;42.648;23.406;2023-02-13T01:30:24;102166.59;;;8.51;nan
6349;BME280;3207;42.648;23.406;2023-02-13T01:32:50;102158.84;;;8.48;nan
6349;BME280;3207;42.648;23.406;2023-02-13T01:35:17;102164.22;;;8.43;nan
6349;BME280;3207;42.648;23.406;2023-02-13T01:37:45;102164.34;;;8.39;nan
6349;BME280;3207;42.648;23.406;2023-02-13T01:40:14;102154.88;;;8.36;nan
6349;BME280;3207;42.648;23.406;2023-02-13T01:42:41;102154.16;;;8.30;nan
6349;BME280;3207;42.648;23.406;2023-02-13T01:45:20;102152.56;;;8.26;nan
6349;BME280;3207;42.648;23.406;2023-02-13T01:47:50;102151.81;;;8.21;nan
6349;BME280;3207;42.648;23.406;2023-02-13T01:50:21;102147.50;;;8.20;nan
6349;BME280;3207;42.648;23.406;2023-02-13T01:52:54;102148.53;;;8.14;nan
6349;BME280;3207;42.648;23.406;2023-02-13T01:55:23;102154.66;;;8.13;nan
6349;BME280;3207;42.648;23.406;2023-02-13T01:57:58;102151.34;;;8.06;nan
6349;BME280;3207;42.648;23.406;2023-02-13T02:00:27;102151.53;;;8.00;nan
6349;BME280;3207;42.648;23.406;2023-02-13T02:02:59;102147.31;;;7.95;nan
6349;BME280;3207;42.648;23.406;2023-02-13T02:05:28;102142.38;;;7.86;nan
6349;BME280;3207;42.648;23.406;2023-02-13T02:07:59;102147.91;;;7.73;nan
6349;BME280;3207;42.648;23.406;2023-02-13T02:10:28;102141.19;;;7.65;nan
6349;BME280;3207;42.648;23.406;2023-02-13T02:13:00;102143.03;;;7.61;nan
6349;BME280;3207;42.648;23.406;2023-02-13T02:15:30;102140.59;;;7.54;nan
6349;BME280;3207;42.648;23.406;2023-02-13T02:17:57;102136.44;;;7.48;nan
6349;BME280;3207;42.648;23.406;2023-02-13T02:20:40;102139.25;;;7.41;nan
6349;BME280;3207;42.648;23.406;2023-02-13T02:23:31;102132.56;;;7.30;nan
6349;BME280;3207;42.648;23.406;2023-02-13T02:29:09;102132.91;;;7.15;nan
6349;BME280;3207;42.648;23.406;2023-02-13T02:34:50;102134.91;;;7.04;nan
6349;BME280;3207;42.648;23.406;2023-02-13T02:37:29;102130.75;;;6.98;nan
6349;BME280;3207;42.648;23.406;2023-02-13T02:40:07;102129.94;;;6.95;nan
6349;BME280;3207;42.648;23.406;2023-02-13T02:42:42;102130.06;;;6.89;nan
6349;BME280;3207;42.648;23.406;2023-02-13T02:45:22;102123.31;;;6.82;nan
6349;BME280;3207;42.648;23.406;2023-02-13T02:47:53;102125.94;;;6.80;nan
6349;BME280;3207;42.648;23.406;2023-02-13T02:50:44;102130.47;;;6.72;nan
6349;BME280;3207;42.648;23.406;2023-02-13T02:53:30;102135.81;;;6.66;nan
6349;BME280;3207;42.648;23.406;2023-02-13T02:56:05;102128.94;;;6.64;nan
6349;BME280;3207;42.648;23.406;2023-02-13T02:58:38;102126.53;;;6.54;nan
6349;BME280;3207;42.648;23.406;2023-02-13T03:01:27;102141.28;;;6.54;nan
6349;BME280;3207;42.648;23.406;2023-02-13T03:04:16;102140.44;;;6.52;nan
6349;BME280;3207;42.648;23.406;2023-02-13T03:07:06;102140.69;;;6.41;nan
6349;BME280;3207;42.648;23.406;2023-02-13T03:09:37;102145.00;;;6.42;nan
6349;BME280;3207;42.648;23.406;2023-02-13T03:12:28;102139.81;;;6.41;nan
6349;BME280;3207;42.648;23.406;2023-02-13T03:15:15;102144.19;;;6.39;nan
6349;BME280;3207;42.648;23.406;2023-02-13T03:17:42;102145.09;;;6.36;nan
6349;BME280;3207;42.648;23.406;2023-02-13T03:20:35;102143.53;;;6.29;nan
6349;BME280;3207;42.648;23.406;2023-02-13T03:23:33;102153.97;;;6.26;nan
6349;BME280;3207;42.648;23.406;2023-02-13T03:29:13;102146.47;;;6.12;nan
6349;BME280;3207;42.648;23.406;2023-02-13T03:32:06;102160.34;;;6.11;nan
6349;BME280;3207;42.648;23.406;2023-02-13T03:34:37;102145.81;;;6.03;nan
6349;BME280;3207;42.648;23.406;2023-02-13T03:37:27;102151.78;;;6.05;nan
6349;BME280;3207;42.648;23.406;2023-02-13T03:40:32;102152.81;;;5.98;nan
6349;BME280;3207;42.648;23.406;2023-02-13T03:43:07;102152.94;;;5.92;nan
6349;BME280;3207;42.648;23.406;2023-02-13T03:45:39;102157.31;;;5.86;nan
6349;BME280;3207;42.648;23.406;2023-02-13T03:48:24;102159.19;;;5.80;nan
6349;BME280;3207;42.648;23.406;2023-02-13T03:51:13;102152.47;;;5.68;nan
6349;BME280;3207;42.648;23.406;2023-02-13T03:53:42;102154.19;;;5.69;nan
6349;BME280;3207;42.648;23.406;2023-02-13T03:56:13;102082.22;;;5.30;nan
6349;BME280;3207;42.648;23.406;2023-02-13T03:59:01;102150.72;;;5.69;nan
6349;BME280;3207;42.648;23.406;2023-02-13T04:01:51;102144.84;;;5.59;nan
6349;BME280;3207;42.648;23.406;2023-02-13T04:04:27;102155.16;;;5.62;nan
6349;BME280;3207;42.648;23.406;2023-02-13T04:07:03;102110.84;;;5.27;nan
6349;BME280;3207;42.648;23.406;2023-02-13T04:09:32;102140.72;;;5.47;nan
6349;BME280;3207;42.648;23.406;2023-02-13T04:12:07;102146.94;;;5.39;nan
6349;BME280;3207;42.648;23.406;2023-02-13T04:14:39;102127.28;;;5.24;nan
6349;BME280;3207;42.648;23.406;2023-02-13T04:17:12;102156.50;;;5.34;nan
6349;BME280;3207;42.648;23.406;2023-02-13T04:19:45;102160.09;;;5.27;nan
6349;BME280;3207;42.648;23.406;2023-02-13T04:22:12;102157.66;;;5.18;nan
6349;BME280;3207;42.648;23.406;2023-02-13T04:24:39;102164.63;;;5.14;nan
6349;BME280;3207;42.648;23.406;2023-02-13T04:27:09;102142.25;;;5.08;nan
6349;BME280;3207;42.648;23.406;2023-02-13T04:29:38;102162.91;;;5.11;nan
6349;BME280;3207;42.648;23.406;2023-02-13T04:32:05;102155.97;;;5.13;nan
6349;BME280;3207;42.648;23.406;2023-02-13T04:34:32;102161.19;;;5.10;nan
6349;BME280;3207;42.648;23.406;2023-02-13T04:36:59;102155.22;;;5.08;nan
6349;BME280;3207;42.648;23.406;2023-02-13T04:39:25;102160.47;;;5.02;nan
6349;BME280;3207;42.648;23.406;2023-02-13T04:41:52;102150.13;;;4.99;nan
6349;BME280;3207;42.648;23.406;2023-02-13T04:44:20;102151.09;;;4.95;nan
6349;BME280;3207;42.648;23.406;2023-02-13T04:46:47;102156.31;;;4.92;nan
6349;BME280;3207;42.648;23.406;2023-02-13T04:49:14;102153.78;;;4.88;nan
6349;BME280;3207;42.648;23.406;2023-02-13T04:51:41;102145.25;;;4.81;nan
6349;BME280;3207;42.648;23.406;2023-02-13T04:54:08;102149.56;;;4.79;nan
6349;BME280;3207;42.648;23.406;2023-02-13T04:56:35;102149.59;;;4.77;nan
6349;BME280;3207;42.648;23.406;2023-02-13T04:59:02;102154.84;;;4.73;nan
6349;BME280;3207;42.648;23.406;2023-02-13T05:01:30;102156.63;;;4.68;nan
6349;BME280;3207;42.648;23.406;2023-02-13T05:03:57;102144.66;;;4.61;nan
6349;BME280;3207;42.648;23.406;2023-02-13T05:06:24;102149.84;;;4.61;nan
6349;BME280;3207;42.648;23.406;2023-02-13T05:08:51;102140.50;;;4.51;nan
6349;BME280;3207;42.648;23.406;2023-02-13T05:11:18;102151.63;;;4.56;nan
6349;BME280;3207;42.648;23.406;2023-02-13T05:13:44;102152.56;;;4.50;nan
6349;BME280;3207;42.648;23.406;2023-02-13T05:16:11;102165.56;;;4.46;nan
6349;BME280;3207;42.648;23.406;2023-02-13T05:18:39;102159.59;;;4.40;nan
6349;BME280;3207;42.648;23.406;2023-02-13T05:21:06;102158.75;;;4.41;nan
6349;BME280;3207;42.648;23.406;2023-02-13T05:23:50;102169.13;;;4.38;nan
6349;BME280;3207;42.648;23.406;2023-02-13T05:26:17;102157.06;;;4.36;nan
6349;BME280;3207;42.648;23.406;2023-02-13T05:28:44;102153.69;;;4.32;nan
6349;BME280;3207;42.648;23.406;2023-02-13T05:31:28;102150.25;;;4.30;nan
6349;BME280;3207;42.648;23.406;2023-02-13T05:33:56;102160.59;;;4.32;nan
6349;BME280;3207;42.648;23.406;2023-02-13T05:36:23;102158.03;;;4.27;nan
6349;BME280;3207;42.648;23.406;2023-02-13T05:38:49;102160.69;;;4.23;nan
6349;BME280;3207;42.648;23.406;2023-02-13T05:41:16;102170.13;;;4.25;nan
6349;BME280;3207;42.648;23.406;2023-02-13T05:43:43;102172.75;;;4.24;nan
6349;BME280;3207;42.648;23.406;2023-02-13T05:46:10;102166.75;;;4.20;nan
6349;BME280;3207;42.648;23.406;2023-02-13T05:48:37;102171.09;;;4.17;nan
6349;BME280;3207;42.648;23.406;2023-02-13T05:51:05;102175.38;;;4.22;nan
6349;BME280;3207;42.648;23.406;2023-02-13T05:53:32;102177.13;;;4.20;nan
6349;BME280;3207;42.648;23.406;2023-02-13T05:56:00;102166.88;;;4.11;nan
6349;BME280;3207;42.648;23.406;2023-02-13T05:58:27;102174.56;;;4.14;nan
6349;BME280;3207;42.648;23.406;2023-02-13T06:00:55;102177.13;;;4.19;nan
6349;BME280;3207;42.648;23.406;2023-02-13T06:03:22;102175.41;;;4.19;nan
6349;BME280;3207;42.648;23.406;2023-02-13T06:05:49;102171.09;;;4.17;nan
6349;BME280;3207;42.648;23.406;2023-02-13T06:08:17;102176.28;;;4.18;nan
6349;BME280;3207;42.648;23.406;2023-02-13T06:10:45;102177.09;;;4.22;nan
6349;BME280;3207;42.648;23.406;2023-02-13T06:13:11;102180.50;;;4.25;nan
6349;BME280;3207;42.648;23.406;2023-02-13T06:15:38;102177.03;;;4.25;nan
6349;BME280;3207;42.648;23.406;2023-02-13T06:18:06;102177.03;;;4.28;nan
6349;BME280;3207;42.648;23.406;2023-02-13T06:20:33;102177.78;;;4.34;nan
6349;BME280;3207;42.648;23.406;2023-02-13T06:23:00;102178.34;;;4.59;nan
6349;BME280;3207;42.648;23.406;2023-02-13T06:25:28;102177.94;;;4.90;nan
6349;BME280;3207;42.648;23.406;2023-02-13T06:27:55;102183.50;;;5.21;nan
6349;BME280;3207;42.648;23.406;2023-02-13T06:30:22;102178.56;;;5.61;nan
6349;BME280;3207;42.648;23.406;2023-02-13T06:32:49;102182.03;;;6.09;nan
6349;BME280;3207;42.648;23.406;2023-02-13T06:35:16;102186.91;;;6.67;nan
6349;BME280;3207;42.648;23.406;2023-02-13T06:37:43;102182.94;;;7.26;nan
6349;BME280;3207;42.648;23.406;2023-02-13T06:40:11;102189.97;;;7.91;nan
6349;BME280;3207;42.648;23.406;2023-02-13T06:42:41;102188.19;;;8.56;nan
6349;BME280;3207;42.648;23.406;2023-02-13T06:45:08;102201.69;;;8.98;nan
6349;BME280;3207;42.648;23.406;2023-02-13T06:47:40;102193.94;;;9.49;nan
6349;BME280;3207;42.648;23.406;2023-02-13T06:50:07;102193.72;;;10.55;nan
6349;BME280;3207;42.648;23.406;2023-02-13T06:52:34;102202.97;;;11.72;nan
6349;BME280;3207;42.648;23.406;2023-02-13T06:57:28;102205.00;;;14.24;nan
6349;BME280;3207;42.648;23.406;2023-02-13T06:59:59;102205.72;;;15.53;nan
6349;BME280;3207;42.648;23.406;2023-02-13T07:02:29;102209.09;;;16.43;nan
6349;BME280;3207;42.648;23.406;2023-02-13T07:04:56;102214.22;;;17.29;nan
6349;BME280;3207;42.648;23.406;2023-02-13T07:07:23;102217.56;;;18.22;nan
6349;BME280;3207;42.648;23.406;2023-02-13T07:09:50;102215.59;;;19.12;nan
6349;BME280;3207;42.648;23.406;2023-02-13T07:12:16;102220.06;;;20.05;nan
6349;BME280;3207;42.648;23.406;2023-02-13T07:14:43;102217.50;;;21.04;nan
6349;BME280;3207;42.648;23.406;2023-02-13T07:17:11;102219.66;;;22.15;nan
6349;BME280;3207;42.648;23.406;2023-02-13T07:19:38;102226.44;;;22.99;nan
6349;BME280;3207;42.648;23.406;2023-02-13T07:22:05;102221.16;;;23.67;nan
6349;BME280;3207;42.648;23.406;2023-02-13T07:24:32;102229.66;;;24.56;nan
6349;BME280;3207;42.648;23.406;2023-02-13T07:26:59;102223.78;;;25.60;nan
6349;BME280;3207;42.648;23.406;2023-02-13T07:29:26;102236.13;;;26.56;nan
6349;BME280;3207;42.648;23.406;2023-02-13T07:31:53;102229.97;;;27.22;nan
6349;BME280;3207;42.648;23.406;2023-02-13T07:34:21;102239.19;;;28.01;nan
6349;BME280;3207;42.648;23.406;2023-02-13T07:36:48;102249.16;;;28.95;nan
6349;BME280;3207;42.648;23.406;2023-02-13T07:39:15;102249.78;;;29.73;nan
6349;BME280;3207;42.648;23.406;2023-02-13T07:41:42;102242.78;;;30.31;nan
6349;BME280;3207;42.648;23.406;2023-02-13T07:44:09;102254.84;;;31.09;nan
6349;BME280;3207;42.648;23.406;2023-02-13T07:46:36;102248.00;;;31.55;nan
6349;BME280;3207;42.648;23.406;2023-02-13T07:49:03;102255.19;;;32.19;nan
6349;BME280;3207;42.648;23.406;2023-02-13T07:51:31;102242.91;;;32.64;nan
6349;BME280;3207;42.648;23.406;2023-02-13T07:53:58;102261.22;;;33.09;nan
6349;BME280;3207;42.648;23.406;2023-02-13T07:56:25;102261.09;;;33.64;nan
6349;BME280;3207;42.648;23.406;2023-02-13T07:58:51;102258.38;;;34.30;nan
6349;BME280;3207;42.648;23.406;2023-02-13T08:01:18;102251.28;;;34.80;nan
6349;BME280;3207;42.648;23.406;2023-02-13T08:03:47;102258.16;;;35.27;nan
6349;BME280;3207;42.648;23.406;2023-02-13T08:06:16;102265.72;;;35.75;nan
6349;BME280;3207;42.648;23.406;2023-02-13T08:08:45;102259.16;;;36.44;nan
6349;BME280;3207;42.648;23.406;2023-02-13T08:11:21;102265.91;;;36.89;nan
6349;BME280;3207;42.648;23.406;2023-02-13T08:14:06;102260.44;;;37.08;nan
6349;BME280;3207;42.648;23.406;2023-02-13T08:16:36;102264.69;;;37.45;nan
6349;BME280;3207;42.648;23.406;2023-02-13T08:19:03;102262.94;;;37.86;nan
6349;BME280;3207;42.648;23.406;2023-02-13T08:21:30;102247.03;;;38.18;nan
6349;BME280;3207;42.648;23.406;2023-02-13T08:23:58;102257.28;;;38.51;nan
6349;BME280;3207;42.648;23.406;2023-02-13T08:26:25;102260.25;;;38.61;nan
6349;BME280;3207;42.648;23.406;2023-02-13T08:28:52;102267.22;;;38.68;nan
6349;BME280;3207;42.648;23.406;2023-02-13T08:31:18;102259.28;;;38.95;nan
6349;BME280;3207;42.648;23.406;2023-02-13T08:33:45;102272.38;;;38.65;nan
6349;BME280;3207;42.648;23.406;2023-02-13T08:36:12;102265.41;;;38.45;nan
6349;BME280;3207;42.648;23.406;2023-02-13T08:38:39;102249.13;;;38.27;nan
6349;BME280;3207;42.648;23.406;2023-02-13T08:41:07;102264.50;;;38.17;nan
6349;BME280;3207;42.648;23.406;2023-02-13T08:43:34;102267.38;;;38.10;nan
6349;BME280;3207;42.648;23.406;2023-02-13T08:46:01;102262.13;;;38.20;nan
6349;BME280;3207;42.648;23.406;2023-02-13T08:48:29;102270.59;;;38.47;nan
6349;BME280;3207;42.648;23.406;2023-02-13T08:50:56;102249.69;;;38.81;nan
6349;BME280;3207;42.648;23.406;2023-02-13T08:53:23;102263.66;;;39.25;nan
6349;BME280;3207;42.648;23.406;2023-02-13T08:55:53;102244.84;;;39.28;nan
6349;BME280;3207;42.648;23.406;2023-02-13T08:58:22;102255.66;;;39.51;nan
6349;BME280;3207;42.648;23.406;2023-02-13T09:00:49;102256.31;;;39.59;nan
6349;BME280;3207;42.648;23.406;2023-02-13T09:03:16;102253.16;;;39.50;nan
6349;BME280;3207;42.648;23.406;2023-02-13T09:05:43;102254.78;;;39.34;nan
6349;BME280;3207;42.648;23.406;2023-02-13T09:08:10;102252.75;;;38.96;nan
6349;BME280;3207;42.648;23.406;2023-02-13T09:10:38;102255.34;;;38.91;nan
6349;BME280;3207;42.648;23.406;2023-02-13T09:13:05;102250.63;;;39.15;nan
6349;BME280;3207;42.648;23.406;2023-02-13T09:15:36;102260.31;;;39.51;nan
6349;BME280;3207;42.648;23.406;2023-02-13T09:18:03;102256.09;;;39.99;nan
6349;BME280;3207;42.648;23.406;2023-02-13T09:20:30;102261.25;;;40.34;nan
6349;BME280;3207;42.648;23.406;2023-02-13T09:22:57;102259.00;;;40.52;nan
6349;BME280;3207;42.648;23.406;2023-02-13T09:25:24;102265.91;;;40.77;nan
6349;BME280;3207;42.648;23.406;2023-02-13T09:27:51;102257.03;;;40.97;nan
6349;BME280;3207;42.648;23.406;2023-02-13T09:30:18;102265.31;;;41.28;nan
6349;BME280;3207;42.648;23.406;2023-02-13T09:32:50;102261.56;;;41.40;nan
6349;BME280;3207;42.648;23.406;2023-02-13T09:35:17;102261.22;;;41.68;nan
6349;BME280;3207;42.648;23.406;2023-02-13T09:37:44;102275.19;;;41.98;nan
6349;BME280;3207;42.648;23.406;2023-02-13T09:40:18;102275.69;;;42.38;nan
6349;BME280;3207;42.648;23.406;2023-02-13T09:42:47;102274.53;;;41.86;nan
6349;BME280;3207;42.648;23.406;2023-02-13T09:45:16;102277.22;;;41.76;nan
6349;BME280;3207;42.648;23.406;2023-02-13T09:47:46;102276.63;;;41.69;nan
6349;BME280;3207;42.648;23.406;2023-02-13T09:50:18;102271.19;;;41.74;nan
6349;BME280;3207;42.648;23.406;2023-02-13T09:52:48;102207.22;;;40.83;nan
6349;BME280;3207;42.648;23.406;2023-02-13T09:55:17;102275.25;;;41.66;nan
6349;BME280;3207;42.648;23.406;2023-02-13T09:57:52;102272.78;;;41.70;nan
6349;BME280;3207;42.648;23.406;2023-02-13T10:00:27;102275.97;;;42.41;nan
6349;BME280;3207;42.648;23.406;2023-02-13T10:03:13;102266.75;;;43.03;nan
6349;BME280;3207;42.648;23.406;2023-02-13T10:05:52;102257.72;;;43.28;nan
6349;BME280;3207;42.648;23.406;2023-02-13T10:08:33;102265.09;;;42.77;nan
6349;BME280;3207;42.648;23.406;2023-02-13T10:11:12;102261.81;;;43.45;nan
6349;BME280;3207;42.648;23.406;2023-02-13T10:13:53;102261.28;;;43.54;nan
6349;BME280;3207;42.648;23.406;2023-02-13T10:16:26;102260.16;;;43.70;nan
6349;BME280;3207;42.648;23.406;2023-02-13T10:18:59;102255.56;;;44.30;nan
6349;BME280;3207;42.648;23.406;2023-02-13T10:21:34;102250.50;;;44.57;nan
6349;BME280;3207;42.648;23.406;2023-02-13T10:24:05;102257.88;;;45.06;nan
6349;BME280;3207;42.648;23.406;2023-02-13T10:26:37;102258.25;;;45.62;nan
6349;BME280;3207;42.648;23.406;2023-02-13T10:29:14;102248.38;;;45.56;nan
6349;BME280;3207;42.648;23.406;2023-02-13T10:32:03;102236.03;;;45.09;nan
6349;BME280;3207;42.648;23.406;2023-02-13T10:34:37;102235.78;;;45.40;nan
6349;BME280;3207;42.648;23.406;2023-02-13T10:37:13;102225.06;;;45.33;nan
6349;BME280;3207;42.648;23.406;2023-02-13T10:39:43;102232.53;;;44.99;nan
6349;BME280;3207;42.648;23.406;2023-02-13T10:42:19;102224.25;;;44.60;nan
6349;BME280;3207;42.648;23.406;2023-02-13T10:44:56;102215.03;;;44.79;nan
6349;BME280;3207;42.648;23.406;2023-02-13T10:47:38;102211.19;;;45.04;nan
6349;BME280;3207;42.648;23.406;2023-02-13T10:50:18;102205.72;;;45.33;nan
6349;BME280;3207;42.648;23.406;2023-02-13T10:52:56;102217.72;;;46.00;nan
6349;BME280;3207;42.648;23.406;2023-02-13T10:55:44;102212.75;;;46.58;nan
6349;BME280;3207;42.648;23.406;2023-02-13T10:58:19;102209.75;;;47.25;nan
6349;BME280;3207;42.648;23.406;2023-02-13T11:00:48;102209.75;;;47.25;nan
6349;BME280;3207;42.648;23.406;2023-02-13T11:03:21;102203.97;;;46.89;nan
6349;BME280;3207;42.648;23.406;2023-02-13T11:05:49;102211.50;;;46.51;nan
6349;BME280;3207;42.648;23.406;2023-02-13T11:08:20;102196.06;;;46.82;nan
6349;BME280;3207;42.648;23.406;2023-02-13T11:10:48;102200.88;;;47.09;nan
6349;BME280;3207;42.648;23.406;2023-02-13T11:13:18;102195.56;;;47.13;nan
6349;BME280;3207;42.648;23.406;2023-02-13T11:16:02;102197.00;;;47.24;nan
6349;BME280;3207;42.648;23.406;2023-02-13T11:18:32;102192.66;;;46.85;nan
6349;BME280;3207;42.648;23.406;2023-02-13T11:21:02;102182.06;;;47.06;nan
6349;BME280;3207;42.648;23.406;2023-02-13T11:23:43;102175.22;;;47.04;nan
6349;BME280;3207;42.648;23.406;2023-02-13T11:26:12;102172.66;;;46.37;nan
6349;BME280;3207;42.648;23.406;2023-02-13T11:28:47;102167.56;;;45.83;nan
6349;BME280;3207;42.648;23.406;2023-02-13T11:31:21;102167.50;;;46.68;nan
6349;BME280;3207;42.648;23.406;2023-02-13T11:33:48;102164.78;;;46.95;nan
6349;BME280;3207;42.648;23.406;2023-02-13T11:36:21;102169.88;;;46.56;nan
6349;BME280;3207;42.648;23.406;2023-02-13T11:38:58;102165.81;;;45.92;nan
6349;BME280;3207;42.648;23.406;2023-02-13T11:41:26;102166.91;;;46.34;nan
6349;BME280;3207;42.648;23.406;2023-02-13T11:43:55;102163.44;;;46.04;nan
6349;BME280;3207;42.648;23.406;2023-02-13T11:46:27;102154.44;;;45.93;nan
6349;BME280;3207;42.648;23.406;2023-02-13T11:48:57;102150.66;;;45.66;nan
6349;BME280;3207;42.648;23.406;2023-02-13T11:51:36;102153.78;;;45.01;nan
6349;BME280;3207;42.648;23.406;2023-02-13T11:54:05;102153.00;;;42.72;nan
6349;BME280;3207;42.648;23.406;2023-02-13T11:56:49;102143.25;;;42.09;nan
6349;BME280;3207;42.648;23.406;2023-02-13T11:59:16;102142.31;;;41.88;nan
6349;BME280;3207;42.648;23.406;2023-02-13T12:01:43;102150.16;;;41.59;nan
6349;BME280;3207;42.648;23.406;2023-02-13T12:04:15;102138.25;;;41.11;nan
6349;BME280;3207;42.648;23.406;2023-02-13T12:06:59;102135.78;;;40.46;nan
6349;BME280;3207;42.648;23.406;2023-02-13T12:09:28;102126.34;;;38.66;nan
6349;BME280;3207;42.648;23.406;2023-02-13T12:11:59;102092.41;;;37.82;nan
6349;BME280;3207;42.648;23.406;2023-02-13T12:14:33;102124.81;;;36.96;nan
6349;BME280;3207;42.648;23.406;2023-02-13T12:17:05;102111.56;;;36.10;nan
6349;BME280;3207;42.648;23.406;2023-02-13T12:19:37;102105.75;;;33.88;nan
6349;BME280;3207;42.648;23.406;2023-02-13T12:22:29;102103.69;;;32.58;nan
6349;BME280;3207;42.648;23.406;2023-02-13T12:25:18;102096.81;;;31.33;nan
6349;BME280;3207;42.648;23.406;2023-02-13T12:27:54;102091.28;;;29.90;nan
6349;BME280;3207;42.648;23.406;2023-02-13T12:30:58;102088.69;;;28.77;nan
6349;BME280;3207;42.648;23.406;2023-02-13T12:36:30;102065.84;;;26.35;nan
6349;BME280;3207;42.648;23.406;2023-02-13T12:39:11;102067.66;;;25.84;nan
6349;BME280;3207;42.648;23.406;2023-02-13T12:41:49;102059.81;;;25.13;nan
6349;BME280;3207;42.648;23.406;2023-02-13T12:47:23;102051.81;;;24.42;nan
6349;BME280;3207;42.648;23.406;2023-02-13T12:50:14;102053.38;;;24.07;nan
6349;BME280;3207;42.648;23.406;2023-02-13T12:52:54;102043.31;;;23.64;nan
6349;BME280;3207;42.648;23.406;2023-02-13T12:55:32;102040.69;;;23.55;nan
6349;BME280;3207;42.648;23.406;2023-02-13T12:58:18;102034.31;;;23.19;nan
6349;BME280;3207;42.648;23.406;2023-02-13T13:00:56;102027.31;;;22.70;nan
6349;BME280;3207;42.648;23.406;2023-02-13T13:03:45;102016.19;;;22.36;nan
6349;BME280;3207;42.648;23.406;2023-02-13T13:06:28;102024.03;;;21.78;nan
6349;BME280;3207;42.648;23.406;2023-02-13T13:09:22;102020.28;;;21.50;nan
6349;BME280;3207;42.648;23.406;2023-02-13T13:12:04;102019.47;;;21.59;nan
6349;BME280;3207;42.648;23.406;2023-02-13T13:14:42;102026.63;;;21.28;nan
6349;BME280;3207;42.648;23.406;2023-02-13T13:17:17;102025.22;;;20.92;nan
6349;BME280;3207;42.648;23.406;2023-02-13T13:19:50;102017.94;;;20.41;nan
6349;BME280;3207;42.648;23.406;2023-02-13T13:22:27;102000.50;;;20.05;nan
6349;BME280;3207;42.648;23.406;2023-02-13T13:25:04;102019.59;;;19.88;nan
6349;BME280;3207;42.648;23.406;2023-02-13T13:27:40;102015.03;;;19.68;nan
6349;BME280;3207;42.648;23.406;2023-02-13T13:30:17;102006.81;;;19.49;nan
6349;BME280;3207;42.648;23.406;2023-02-13T13:32:47;102017.28;;;19.61;nan
6349;BME280;3207;42.648;23.406;2023-02-13T13:35:18;102013.41;;;19.43;nan
6349;BME280;3207;42.648;23.406;2023-02-13T13:37:49;102014.97;;;19.46;nan
6349;BME280;3207;42.648;23.406;2023-02-13T13:40:36;102017.06;;;19.07;nan
6349;BME280;3207;42.648;23.406;2023-02-13T13:43:16;102017.91;;;19.08;nan
6349;BME280;3207;42.648;23.406;2023-02-13T13:45:51;102016.72;;;19.12;nan
6349;BME280;3207;42.648;23.406;2023-02-13T13:48:58;102021.56;;;19.18;nan
6349;BME280;3207;42.648;23.406;2023-02-13T13:51:32;102019.91;;;19.17;nan
6349;BME280;3207;42.648;23.406;2023-02-13T13:54:32;102027.84;;;19.17;nan
6349;BME280;3207;42.648;23.406;2023-02-13T13:57:08;102018.56;;;19.22;nan
6349;BME280;3207;42.648;23.406;2023-02-13T14:02:45;102020.38;;;19.22;nan
6349;BME280;3207;42.648;23.406;2023-02-13T14:05:25;102011.13;;;19.27;nan
6349;BME280;3207;42.648;23.406;2023-02-13T14:07:54;102009.88;;;19.20;nan
6349;BME280;3207;42.648;23.406;2023-02-13T14:13:36;102003.06;;;18.59;nan
6349;BME280;3207;42.648;23.406;2023-02-13T14:16:05;101997.78;;;18.59;nan
6349;BME280;3207;42.648;23.406;2023-02-13T14:18:36;101996.19;;;18.33;nan